Time;durP1;ratioP1;P1;durP2;ratioP2;P2;SDS_P1;SDS_P2;PMS_P1;PMS_P2;Temp;Humidity;BMP_temperature;BMP_pressure;BME280_temperature;BME280_humidity;BME280_pressure;Samples;Min_cycle;Max_cycle;Signal;HPM_P1;HPM_P2
2021/08/11 00:00:57;;;;;;;;;;;22.30;65.80;;;;;;5019357;28;20374;-59
2021/08/11 00:03:22;;;;;;;;;;;22.30;65.80;;;;;;5017981;28;20019;-60
2021/08/11 00:05:48;;;;;;;;;;;22.30;65.80;;;;;;5017437;28;19913;-60
2021/08/11 00:08:13;;;;;;;;;;;22.30;65.80;;;;;;5017577;28;19925;-59
2021/08/11 00:10:39;;;;;;;;;;;22.30;65.70;;;;;;5013962;28;20536;-60
2021/08/11 00:13:04;;;;;;;;;;;22.30;65.70;;;;;;4998570;28;19940;-60
2021/08/11 00:15:30;;;;;;;;;;;22.30;65.70;;;;;;5026905;28;20296;-59
2021/08/11 00:17:55;;;;;;;;;;;22.30;65.70;;;;;;5019160;28;19943;-62
2021/08/11 00:20:24;;;;;;;;;;;22.30;65.60;;;;;;5020262;28;19974;-60
2021/08/11 00:22:49;;;;;;;;;;;22.30;65.60;;;;;;5020953;28;19975;-59
2021/08/11 00:25:14;;;;;;;;;;;22.30;65.60;;;;;;5018926;28;19925;-59
2021/08/11 00:27:40;;;;;;;;;;;22.30;65.60;;;;;;5022053;28;19928;-60
2021/08/11 00:30:06;;;;;;;;;;;22.30;65.60;;;;;;5019666;28;19917;-60
2021/08/11 00:32:31;;;;;;;;;;;22.30;65.60;;;;;;5021707;28;19913;-60
2021/08/11 00:34:56;;;;;;;;;;;22.30;65.60;;;;;;5019501;28;19920;-60
2021/08/11 00:37:22;;;;;;;;;;;22.30;65.50;;;;;;5022293;28;19924;-60
2021/08/11 00:39:47;;;;;;;;;;;22.30;65.60;;;;;;5018628;28;19913;-61
2021/08/11 00:42:13;;;;;;;;;;;22.30;65.50;;;;;;5049854;22;19928;-62
2021/08/11 00:44:38;;;;;;;;;;;22.30;65.50;;;;;;5052230;28;20859;-63
2021/08/11 00:47:04;;;;;;;;;;;22.30;65.50;;;;;;5049153;28;20269;-62
2021/08/11 00:49:29;;;;;;;;;;;22.30;65.50;;;;;;5056403;28;19995;-63
2021/08/11 00:51:55;;;;;;;;;;;22.30;65.50;;;;;;5058818;28;20545;-62
2021/08/11 00:54:20;;;;;;;;;;;22.30;65.50;;;;;;5058800;28;20894;-62
2021/08/11 00:56:46;;;;;;;;;;;22.30;65.40;;;;;;5059994;28;19924;-62
2021/08/11 00:59:11;;;;;;;;;;;22.30;65.40;;;;;;5059923;28;19923;-62
2021/08/11 01:01:37;;;;;;;;;;;22.30;65.40;;;;;;5057774;28;19913;-63
2021/08/11 01:04:02;;;;;;;;;;;22.30;65.40;;;;;;5059845;28;20369;-63
2021/08/11 01:06:28;;;;;;;;;;;22.30;65.40;;;;;;5060399;28;19947;-63
2021/08/11 01:08:53;;;;;;;;;;;22.30;65.40;;;;;;5060012;28;20357;-62
2021/08/11 01:11:19;;;;;;;;;;;22.30;65.30;;;;;;5060595;28;20332;-63
2021/08/11 01:13:44;;;;;;;;;;;22.30;65.30;;;;;;5059640;28;19977;-62
2021/08/11 01:16:09;;;;;;;;;;;22.30;65.30;;;;;;5060997;28;20258;-63
2021/08/11 01:18:35;;;;;;;;;;;22.30;65.20;;;;;;5060382;28;19920;-63
2021/08/11 01:21:12;;;;;;;;;;;22.30;65.20;;;;;;5060350;28;20198;-63
2021/08/11 01:23:57;;;;;;;;;;;22.30;65.20;;;;;;5060655;28;19943;-62
2021/08/11 01:26:46;;;;;;;;;;;22.30;65.10;;;;;;5029001;28;20365;-62
2021/08/11 01:29:12;;;;;;;;;;;22.30;65.00;;;;;;5025093;28;20507;-62
2021/08/11 01:31:42;;;;;;;;;;;22.30;65.10;;;;;;5060420;28;19944;-62
2021/08/11 01:34:09;;;;;;;;;;;22.30;65.00;;;;;;5059227;28;19917;-63
2021/08/11 01:36:39;;;;;;;;;;;22.30;65.00;;;;;;5059694;28;19924;-63
2021/08/11 01:39:17;;;;;;;;;;;22.30;65.00;;;;;;5058205;28;19916;-63
2021/08/11 01:41:47;;;;;;;;;;;22.30;64.90;;;;;;5060081;28;19928;-62
2021/08/11 01:44:12;;;;;;;;;;;22.30;64.90;;;;;;5059740;28;19916;-63
2021/08/11 01:46:39;;;;;;;;;;;22.30;64.90;;;;;;5059167;28;19923;-63
2021/08/11 01:49:07;;;;;;;;;;;22.30;64.80;;;;;;5060946;28;20376;-63
2021/08/11 01:51:33;;;;;;;;;;;22.30;64.80;;;;;;5059807;28;19916;-63
2021/08/11 01:53:59;;;;;;;;;;;22.30;64.80;;;;;;5059330;28;19978;-63
2021/08/11 01:56:24;;;;;;;;;;;22.30;64.80;;;;;;5042364;28;20001;-62
2021/08/11 01:58:50;;;;;;;;;;;22.30;64.70;;;;;;5060518;28;19916;-63
2021/08/11 02:01:15;;;;;;;;;;;22.20;64.60;;;;;;5058743;28;19919;-63
2021/08/11 02:03:41;;;;;;;;;;;22.30;64.60;;;;;;5058937;28;19913;-62
2021/08/11 02:06:06;;;;;;;;;;;22.20;64.70;;;;;;5059819;28;19912;-63
2021/08/11 02:08:32;;;;;;;;;;;22.20;64.60;;;;;;5059831;28;19923;-63
2021/08/11 02:10:58;;;;;;;;;;;22.30;64.70;;;;;;5058380;28;19928;-63
2021/08/11 02:13:23;;;;;;;;;;;22.20;64.50;;;;;;5058474;28;20293;-62
2021/08/11 02:15:49;;;;;;;;;;;22.20;64.50;;;;;;5059578;28;19920;-63
2021/08/11 02:18:14;;;;;;;;;;;22.20;64.50;;;;;;5059328;28;19916;-62
2021/08/11 02:20:40;;;;;;;;;;;22.20;64.50;;;;;;5059774;28;20236;-63
2021/08/11 02:23:05;;;;;;;;;;;22.30;64.60;;;;;;5059873;28;19936;-62
2021/08/11 02:25:31;;;;;;;;;;;22.20;64.50;;;;;;5060293;28;19938;-63
2021/08/11 02:28:00;;;;;;;;;;;22.20;64.50;;;;;;5059013;28;19944;-64
2021/08/11 02:30:27;;;;;;;;;;;22.30;64.60;;;;;;5059001;28;19936;-65
2021/08/11 02:32:58;;;;;;;;;;;22.20;64.50;;;;;;5059741;28;20434;-63
2021/08/11 02:35:26;;;;;;;;;;;22.20;64.60;;;;;;5048557;28;20302;-62
2021/08/11 02:38:08;;;;;;;;;;;22.20;64.50;;;;;;5058596;28;20003;-62
2021/08/11 02:40:37;;;;;;;;;;;22.20;64.60;;;;;;5059114;28;20500;-61
2021/08/11 02:43:28;;;;;;;;;;;22.20;64.40;;;;;;5059228;28;19930;-63
2021/08/11 02:45:55;;;;;;;;;;;22.20;64.50;;;;;;5054077;28;19917;-63
2021/08/11 02:48:20;;;;;;;;;;;22.20;64.50;;;;;;5058604;28;19966;-62
2021/08/11 02:50:46;;;;;;;;;;;22.20;64.50;;;;;;5058750;28;19920;-63
2021/08/11 02:53:12;;;;;;;;;;;22.20;64.50;;;;;;5058630;28;20460;-63
2021/08/11 02:55:38;;;;;;;;;;;22.20;64.50;;;;;;5058819;28;19927;-63
2021/08/11 02:58:04;;;;;;;;;;;22.20;64.50;;;;;;5058531;28;19916;-62
2021/08/11 03:00:29;;;;;;;;;;;22.20;64.60;;;;;;5060124;28;20125;-63
2021/08/11 03:02:55;;;;;;;;;;;22.20;64.50;;;;;;5058884;28;19917;-62
2021/08/11 03:05:20;;;;;;;;;;;22.20;64.40;;;;;;5058356;28;19920;-62
2021/08/11 03:07:45;;;;;;;;;;;22.20;64.40;;;;;;5058908;28;21481;-62
2021/08/11 03:10:11;;;;;;;;;;;22.20;64.50;;;;;;5060169;28;19943;-62
2021/08/11 03:12:37;;;;;;;;;;;22.20;64.50;;;;;;5058143;28;19919;-63
2021/08/11 03:15:03;;;;;;;;;;;22.20;64.50;;;;;;5060314;28;19913;-62
2021/08/11 03:17:28;;;;;;;;;;;22.20;64.50;;;;;;5060181;28;20320;-62
2021/08/11 03:19:53;;;;;;;;;;;22.20;64.50;;;;;;5060368;28;19919;-62
2021/08/11 03:22:19;;;;;;;;;;;22.20;64.50;;;;;;5041795;28;19920;-62
2021/08/11 03:24:44;;;;;;;;;;;22.20;64.60;;;;;;5060158;28;19920;-62
2021/08/11 03:27:10;;;;;;;;;;;22.20;65.10;;;;;;5059813;28;20110;-62
2021/08/11 03:29:38;;;;;;;;;;;22.20;64.60;;;;;;5059584;28;19962;-63
2021/08/11 03:32:03;;;;;;;;;;;22.20;64.50;;;;;;5059226;28;19924;-61
2021/08/11 03:34:29;;;;;;;;;;;22.20;64.50;;;;;;5059425;28;19916;-62
2021/08/11 03:36:55;;;;;;;;;;;22.20;64.50;;;;;;5060173;28;20026;-62
2021/08/11 03:39:20;;;;;;;;;;;22.20;64.50;;;;;;5059076;28;20258;-61
2021/08/11 03:41:46;;;;;;;;;;;22.20;64.50;;;;;;5059357;28;22084;-62
2021/08/11 03:44:11;;;;;;;;;;;22.20;64.50;;;;;;5054657;28;19963;-62
2021/08/11 03:46:37;;;;;;;;;;;22.10;64.50;;;;;;5050235;28;19914;-62
2021/08/11 03:49:02;;;;;;;;;;;22.20;64.50;;;;;;5063198;28;19912;-63
2021/08/11 03:51:27;;;;;;;;;;;22.20;64.50;;;;;;5062411;28;20389;-63
2021/08/11 03:53:53;;;;;;;;;;;22.10;64.30;;;;;;5063861;28;20213;-62
2021/08/11 03:56:18;;;;;;;;;;;22.10;64.40;;;;;;5062693;28;19966;-62
2021/08/11 03:58:44;;;;;;;;;;;22.10;64.30;;;;;;5063161;28;19923;-62
2021/08/11 04:01:09;;;;;;;;;;;22.10;64.40;;;;;;5063394;28;19916;-62
2021/08/11 04:03:35;;;;;;;;;;;22.10;64.40;;;;;;5062538;28;19986;-61
2021/08/11 04:06:00;;;;;;;;;;;22.10;64.40;;;;;;5063123;28;19931;-62
2021/08/11 04:08:26;;;;;;;;;;;22.20;64.50;;;;;;5061535;28;19999;-62
2021/08/11 04:10:53;;;;;;;;;;;22.10;64.30;;;;;;5062798;28;19912;-62
2021/08/11 04:13:19;;;;;;;;;;;22.10;64.40;;;;;;5062934;28;20374;-62
2021/08/11 04:15:44;;;;;;;;;;;22.10;64.40;;;;;;5061295;28;20407;-62
2021/08/11 04:18:10;;;;;;;;;;;22.10;64.40;;;;;;5062184;28;19923;-62
2021/08/11 04:20:36;;;;;;;;;;;22.10;64.30;;;;;;5061787;28;19912;-62
2021/08/11 04:23:01;;;;;;;;;;;22.10;64.40;;;;;;5062565;28;19923;-62
2021/08/11 04:25:27;;;;;;;;;;;22.20;64.50;;;;;;5045143;28;19916;-62
2021/08/11 04:27:52;;;;;;;;;;;22.10;64.40;;;;;;5062887;28;20009;-62
2021/08/11 04:30:18;;;;;;;;;;;22.10;64.40;;;;;;5062284;28;19927;-62
2021/08/11 04:32:43;;;;;;;;;;;22.10;64.50;;;;;;5060823;28;20377;-62
2021/08/11 04:35:09;;;;;;;;;;;22.10;64.40;;;;;;5062630;28;19916;-62
2021/08/11 04:37:37;;;;;;;;;;;22.10;64.40;;;;;;5061121;28;19924;-62
2021/08/11 04:40:06;;;;;;;;;;;22.10;64.50;;;;;;5063653;28;20381;-62
2021/08/11 04:42:32;;;;;;;;;;;22.10;64.50;;;;;;5063856;28;19971;-62
2021/08/11 04:44:58;;;;;;;;;;;22.10;64.50;;;;;;5064172;28;20003;-63
2021/08/11 04:47:23;;;;;;;;;;;22.10;64.50;;;;;;5064178;28;20000;-62
2021/08/11 04:49:48;;;;;;;;;;;22.10;64.50;;;;;;5062935;28;19920;-62
2021/08/11 04:52:14;;;;;;;;;;;22.10;64.50;;;;;;5063678;28;19913;-62
2021/08/11 04:54:39;;;;;;;;;;;22.10;64.30;;;;;;5062919;28;20398;-62
2021/08/11 04:57:05;;;;;;;;;;;22.10;64.30;;;;;;5062617;28;19916;-62
2021/08/11 04:59:30;;;;;;;;;;;22.10;64.30;;;;;;5062194;28;19923;-62
2021/08/11 05:01:56;;;;;;;;;;;22.10;64.30;;;;;;5063110;28;19912;-62
2021/08/11 05:04:21;;;;;;;;;;;22.10;64.30;;;;;;5062443;28;19983;-62
2021/08/11 05:06:47;;;;;;;;;;;22.10;64.40;;;;;;5062156;28;20872;-62
2021/08/11 05:09:12;;;;;;;;;;;22.10;64.30;;;;;;5061544;28;19917;-62
2021/08/11 05:11:38;;;;;;;;;;;22.10;64.20;;;;;;5059993;28;19921;-62
2021/08/11 05:14:03;;;;;;;;;;;22.10;64.10;;;;;;5061473;28;20243;-63
2021/08/11 05:16:29;;;;;;;;;;;22.10;64.10;;;;;;5061986;28;20300;-63
2021/08/11 05:18:54;;;;;;;;;;;22.10;64.10;;;;;;5062083;28;19916;-62
2021/08/11 05:21:21;;;;;;;;;;;22.10;64.10;;;;;;5061570;28;19913;-62
2021/08/11 05:23:46;;;;;;;;;;;22.10;64.20;;;;;;5060398;28;19913;-62
2021/08/11 05:26:12;;;;;;;;;;;22.10;64.30;;;;;;5061995;28;19917;-62
2021/08/11 05:28:37;;;;;;;;;;;22.10;64.50;;;;;;5060459;28;19913;-62
2021/08/11 05:31:02;;;;;;;;;;;22.10;64.60;;;;;;5059354;28;20270;-62
2021/08/11 05:33:28;;;;;;;;;;;22.10;64.60;;;;;;5061159;28;19924;-64
2021/08/11 05:35:53;;;;;;;;;;;22.10;64.70;;;;;;5060382;28;19920;-62
2021/08/11 05:38:19;;;;;;;;;;;22.10;64.70;;;;;;5059433;28;19916;-62
2021/08/11 05:40:44;;;;;;;;;;;22.00;64.60;;;;;;5060713;28;19928;-64
2021/08/11 05:43:10;;;;;;;;;;;22.00;64.50;;;;;;5060449;28;19931;-62
2021/08/11 05:45:35;;;;;;;;;;;22.00;64.50;;;;;;5060560;28;19917;-62
2021/08/11 05:48:01;;;;;;;;;;;22.00;64.50;;;;;;5060736;28;19913;-62
2021/08/11 05:50:26;;;;;;;;;;;22.00;64.50;;;;;;5061410;28;19919;-62
2021/08/11 05:52:51;;;;;;;;;;;22.00;64.50;;;;;;5060555;28;19942;-62
2021/08/11 05:55:17;;;;;;;;;;;22.00;64.50;;;;;;5060822;28;19913;-62
2021/08/11 05:57:42;;;;;;;;;;;22.00;64.80;;;;;;5059891;28;19917;-62
2021/08/11 06:00:09;;;;;;;;;;;22.00;65.00;;;;;;5059228;28;19916;-62
2021/08/11 06:02:36;;;;;;;;;;;22.00;65.00;;;;;;5060445;28;19913;-62
2021/08/11 06:05:02;;;;;;;;;;;22.00;64.90;;;;;;5059316;28;20370;-62
2021/08/11 06:07:27;;;;;;;;;;;22.00;64.70;;;;;;5060733;28;19923;-62
2021/08/11 06:09:53;;;;;;;;;;;22.00;64.70;;;;;;5057953;28;19917;-62
2021/08/11 06:12:18;;;;;;;;;;;22.00;64.60;;;;;;5057713;28;19974;-62
2021/08/11 06:14:44;;;;;;;;;;;22.00;64.60;;;;;;5055624;28;19921;-62
2021/08/11 06:17:09;;;;;;;;;;;22.00;64.60;;;;;;5058638;28;19922;-62
2021/08/11 06:19:35;;;;;;;;;;;22.00;64.60;;;;;;5058776;28;19987;-62
2021/08/11 06:22:00;;;;;;;;;;;22.00;64.50;;;;;;5059624;28;19920;-62
2021/08/11 06:24:26;;;;;;;;;;;21.90;64.50;;;;;;5060148;28;19916;-62
2021/08/11 06:26:52;;;;;;;;;;;22.00;64.60;;;;;;5059603;28;19912;-62
2021/08/11 06:29:18;;;;;;;;;;;21.90;64.50;;;;;;5059654;28;19916;-61
2021/08/11 06:31:43;;;;;;;;;;;22.00;64.60;;;;;;5059756;28;20377;-62
2021/08/11 06:34:08;;;;;;;;;;;21.90;64.60;;;;;;5060058;28;19927;-62
2021/08/11 06:36:34;;;;;;;;;;;21.90;64.50;;;;;;5059657;28;19923;-62
2021/08/11 06:38:59;;;;;;;;;;;21.90;64.60;;;;;;5060644;28;19927;-62
2021/08/11 06:41:25;;;;;;;;;;;21.90;64.60;;;;;;5059857;28;19912;-63
2021/08/11 06:43:50;;;;;;;;;;;21.90;64.90;;;;;;5059883;28;19952;-62
2021/08/11 06:46:16;;;;;;;;;;;21.90;65.30;;;;;;5059043;28;19920;-62
2021/08/11 06:48:41;;;;;;;;;;;21.90;65.10;;;;;;5058937;28;19966;-61
2021/08/11 06:51:07;;;;;;;;;;;21.90;65.20;;;;;;5059104;28;19921;-62
2021/08/11 06:53:32;;;;;;;;;;;21.80;65.30;;;;;;5059038;28;19927;-62
2021/08/11 06:55:58;;;;;;;;;;;21.80;65.60;;;;;;5058904;28;19938;-61
2021/08/11 06:58:23;;;;;;;;;;;21.80;65.60;;;;;;4987496;22;1695293;-68
2021/08/11 07:00:49;;;;;;;;;;;21.80;65.70;;;;;;5036560;28;19952;-69
2021/08/11 07:03:16;;;;;;;;;;;21.80;65.50;;;;;;5028941;28;19924;-70
2021/08/11 07:05:41;;;;;;;;;;;21.80;65.40;;;;;;5025790;28;19909;-68
2021/08/11 07:08:07;;;;;;;;;;;21.80;65.50;;;;;;5017494;28;20339;-67
2021/08/11 07:10:32;;;;;;;;;;;21.80;66.00;;;;;;5024276;28;19913;-67
2021/08/11 07:12:58;;;;;;;;;;;21.80;65.60;;;;;;5004647;28;19925;-67
2021/08/11 07:15:23;;;;;;;;;;;21.80;65.40;;;;;;5017900;28;19919;-67
2021/08/11 07:17:49;;;;;;;;;;;21.80;65.40;;;;;;5014557;28;20470;-67
2021/08/11 07:20:14;;;;;;;;;;;21.90;65.40;;;;;;5009933;28;19913;-67
2021/08/11 07:22:40;;;;;;;;;;;21.90;65.40;;;;;;5030489;28;19913;-66
2021/08/11 07:25:05;;;;;;;;;;;21.80;65.30;;;;;;5011785;28;19948;-68
2021/08/11 07:27:31;;;;;;;;;;;21.80;65.40;;;;;;5015215;28;20118;-66
2021/08/11 07:29:56;;;;;;;;;;;21.80;65.30;;;;;;5030072;28;19920;-67
2021/08/11 07:32:22;;;;;;;;;;;21.80;65.30;;;;;;5013234;28;19913;-67
2021/08/11 07:34:47;;;;;;;;;;;21.90;65.30;;;;;;5010854;28;19917;-67
2021/08/11 07:37:14;;;;;;;;;;;21.80;65.40;;;;;;5023847;28;19917;-66
2021/08/11 07:39:40;;;;;;;;;;;21.90;65.40;;;;;;5030564;28;19932;-67
2021/08/11 07:42:05;;;;;;;;;;;21.90;65.40;;;;;;5025884;28;19943;-67
2021/08/11 07:44:31;;;;;;;;;;;21.80;65.30;;;;;;5025815;28;20028;-67
2021/08/11 07:46:56;;;;;;;;;;;21.90;65.40;;;;;;5010802;28;19914;-67
2021/08/11 07:49:21;;;;;;;;;;;21.80;65.20;;;;;;5027465;28;19952;-64
2021/08/11 07:51:47;;;;;;;;;;;21.80;65.20;;;;;;5010817;28;20360;-66
2021/08/11 07:54:12;;;;;;;;;;;21.80;65.20;;;;;;5022332;28;19937;-67
2021/08/11 07:56:38;;;;;;;;;;;21.80;65.20;;;;;;5014141;28;19965;-67
2021/08/11 07:59:03;;;;;;;;;;;21.80;65.30;;;;;;5016462;28;19922;-67
2021/08/11 08:01:29;;;;;;;;;;;21.80;65.50;;;;;;5023119;28;20372;-66
2021/08/11 08:03:54;;;;;;;;;;;21.80;65.50;;;;;;5009273;28;20047;-67
2021/08/11 08:06:19;;;;;;;;;;;21.80;65.50;;;;;;5008554;28;19920;-67
2021/08/11 08:08:45;;;;;;;;;;;21.90;65.50;;;;;;5017855;28;19913;-67
2021/08/11 08:11:10;;;;;;;;;;;21.90;65.60;;;;;;5023062;28;19917;-67
2021/08/11 08:13:36;;;;;;;;;;;21.80;65.40;;;;;;4995716;28;19999;-67
2021/08/11 08:16:01;;;;;;;;;;;21.90;65.40;;;;;;5015864;28;19944;-67
2021/08/11 08:18:27;;;;;;;;;;;21.80;65.50;;;;;;5011248;28;19921;-67
2021/08/11 08:20:53;;;;;;;;;;;21.80;65.30;;;;;;5017548;28;19961;-67
2021/08/11 08:23:18;;;;;;;;;;;21.80;65.50;;;;;;5025811;28;19917;-66
2021/08/11 08:25:44;;;;;;;;;;;21.80;65.50;;;;;;5021580;28;20376;-67
2021/08/11 08:28:09;;;;;;;;;;;21.80;65.50;;;;;;5020277;28;19920;-66
2021/08/11 08:30:35;;;;;;;;;;;21.80;65.60;;;;;;5024758;28;19917;-67
2021/08/11 08:33:00;;;;;;;;;;;21.80;65.70;;;;;;5018921;28;19918;-67
2021/08/11 08:35:25;;;;;;;;;;;21.80;65.50;;;;;;5022289;28;19913;-66
2021/08/11 08:37:51;;;;;;;;;;;21.80;65.90;;;;;;5005527;28;20412;-67
2021/08/11 08:40:16;;;;;;;;;;;21.80;65.40;;;;;;5014364;28;19924;-68
2021/08/11 08:42:42;;;;;;;;;;;21.80;65.40;;;;;;5010318;28;19940;-67
2021/08/11 08:45:08;;;;;;;;;;;21.80;65.40;;;;;;5010831;28;20014;-67
2021/08/11 08:47:34;;;;;;;;;;;21.80;65.50;;;;;;5013142;28;20004;-67
2021/08/11 08:50:00;;;;;;;;;;;21.80;65.50;;;;;;5021628;28;20211;-67
2021/08/11 08:52:25;;;;;;;;;;;21.80;65.50;;;;;;5010943;28;20302;-67
2021/08/11 08:54:51;;;;;;;;;;;21.80;65.50;;;;;;5015969;28;20324;-66
2021/08/11 08:57:16;;;;;;;;;;;21.80;65.50;;;;;;5013770;28;19964;-67
2021/08/11 08:59:45;;;;;;;;;;;21.80;65.30;;;;;;5010200;28;20317;-67
2021/08/11 09:02:11;;;;;;;;;;;21.80;65.40;;;;;;5003258;28;20422;-64
2021/08/11 09:04:39;;;;;;;;;;;21.80;64.80;;;;;;5016641;28;19917;-66
2021/08/11 09:07:05;;;;;;;;;;;21.80;65.10;;;;;;5019263;28;20338;-66
2021/08/11 09:09:37;;;;;;;;;;;21.80;65.10;;;;;;5019913;28;19917;-65
2021/08/11 09:12:13;;;;;;;;;;;21.80;65.10;;;;;;4997042;28;19928;-66
2021/08/11 09:14:38;;;;;;;;;;;21.80;65.10;;;;;;4997269;28;19929;-65
2021/08/11 09:17:04;;;;;;;;;;;21.80;64.50;;;;;;5013000;28;19917;-63
2021/08/11 09:19:39;;;;;;;;;;;21.80;65.00;;;;;;5008586;28;20277;-65
2021/08/11 09:22:05;;;;;;;;;;;21.80;63.40;;;;;;5013036;28;19921;-65
2021/08/11 09:24:36;;;;;;;;;;;21.80;64.50;;;;;;5024444;28;19925;-67
2021/08/11 09:27:15;;;;;;;;;;;21.80;64.60;;;;;;5014340;28;19920;-66
2021/08/11 09:29:59;;;;;;;;;;;21.80;64.40;;;;;;5018945;28;20345;-65
2021/08/11 09:32:25;;;;;;;;;;;21.80;64.50;;;;;;5016446;28;19918;-66
2021/08/11 09:34:50;;;;;;;;;;;21.70;64.50;;;;;;5003391;28;20281;-66
2021/08/11 09:37:16;;;;;;;;;;;21.80;63.90;;;;;;5008602;28;19925;-66
2021/08/11 09:39:42;;;;;;;;;;;21.80;64.50;;;;;;5023013;28;20339;-66
2021/08/11 09:42:07;;;;;;;;;;;21.80;64.60;;;;;;5023134;28;20342;-66
2021/08/11 09:44:33;;;;;;;;;;;21.80;64.60;;;;;;5010171;28;19917;-66
2021/08/11 09:47:09;;;;;;;;;;;21.80;64.70;;;;;;5020889;28;19920;-65
2021/08/11 09:49:35;;;;;;;;;;;21.80;64.80;;;;;;5017227;28;20284;-66
2021/08/11 09:52:01;;;;;;;;;;;21.80;64.80;;;;;;5019784;28;20261;-66
2021/08/11 09:54:27;;;;;;;;;;;21.80;64.90;;;;;;5018784;28;20498;-66
2021/08/11 09:56:52;;;;;;;;;;;21.80;65.00;;;;;;5011642;28;19922;-66
2021/08/11 09:59:18;;;;;;;;;;;21.80;65.00;;;;;;5019108;28;19929;-66
2021/08/11 10:01:43;;;;;;;;;;;21.80;65.00;;;;;;5021416;28;19913;-66
2021/08/11 10:04:10;;;;;;;;;;;21.80;64.90;;;;;;5016140;28;19987;-66
2021/08/11 10:06:37;;;;;;;;;;;21.80;65.00;;;;;;5010742;28;19917;-65
2021/08/11 10:09:17;;;;;;;;;;;21.80;65.10;;;;;;5014347;28;19917;-66
2021/08/11 10:11:44;;;;;;;;;;;21.80;65.10;;;;;;5004168;28;20381;-66
2021/08/11 10:14:11;;;;;;;;;;;21.80;65.10;;;;;;4982959;28;19919;-66
2021/08/11 10:16:36;;;;;;;;;;;21.80;65.10;;;;;;5018794;28;19921;-64
2021/08/11 10:19:02;;;;;;;;;;;21.80;64.80;;;;;;5010317;28;19917;-65
2021/08/11 10:21:28;;;;;;;;;;;21.80;65.00;;;;;;5014280;28;20232;-61
2021/08/11 10:23:53;;;;;;;;;;;21.80;65.00;;;;;;5006610;28;19927;-65
2021/08/11 10:26:19;;;;;;;;;;;21.80;65.00;;;;;;5009644;28;19967;-66
2021/08/11 10:28:45;;;;;;;;;;;21.80;65.10;;;;;;5008807;28;20244;-66
2021/08/11 10:31:11;;;;;;;;;;;21.80;65.00;;;;;;5011599;28;20601;-59
2021/08/11 10:33:36;;;;;;;;;;;21.80;64.20;;;;;;5012648;28;19951;-65
2021/08/11 10:36:02;;;;;;;;;;;21.80;63.90;;;;;;5019331;28;19995;-65
2021/08/11 10:38:27;;;;;;;;;;;21.80;64.40;;;;;;4999308;28;20194;-66
2021/08/11 10:40:53;;;;;;;;;;;21.80;64.10;;;;;;5008988;28;19917;-65
2021/08/11 10:43:18;;;;;;;;;;;21.70;64.60;;;;;;4992689;28;19917;-65
2021/08/11 10:45:43;;;;;;;;;;;21.70;64.80;;;;;;5014306;28;19913;-63
2021/08/11 10:48:16;;;;;;;;;;;21.80;64.90;;;;;;5010061;28;20295;-59
2021/08/11 10:50:42;;;;;;;;;;;21.80;64.90;;;;;;5035036;28;19924;-59
2021/08/11 10:53:08;;;;;;;;;;;21.70;64.90;;;;;;4992400;28;19922;-58
2021/08/11 10:55:40;;;;;;;;;;;21.80;64.30;;;;;;5022770;28;19936;-60
2021/08/11 10:58:05;;;;;;;;;;;21.80;65.00;;;;;;5010612;28;19927;-64
2021/08/11 11:00:31;;;;;;;;;;;21.80;65.00;;;;;;5011854;28;19914;-65
2021/08/11 11:02:57;;;;;;;;;;;21.80;64.90;;;;;;4997086;28;19918;-67
2021/08/11 11:05:24;;;;;;;;;;;21.80;64.90;;;;;;5010713;28;20110;-56
2021/08/11 11:08:05;;;;;;;;;;;21.80;65.00;;;;;;5022354;28;20438;-66
2021/08/11 11:10:30;;;;;;;;;;;21.80;64.90;;;;;;5016961;28;19914;-60
2021/08/11 11:12:55;;;;;;;;;;;21.80;64.70;;;;;;5015590;28;19928;-62
2021/08/11 11:15:39;;;;;;;;;;;21.80;64.70;;;;;;5021040;28;19921;-65
2021/08/11 11:18:08;;;;;;;;;;;21.80;64.60;;;;;;5000397;28;19921;-62
2021/08/11 11:20:34;;;;;;;;;;;21.80;64.70;;;;;;5018881;28;19940;-65
2021/08/11 11:22:59;;;;;;;;;;;21.80;64.70;;;;;;5006670;28;20380;-64
2021/08/11 11:25:43;;;;;;;;;;;21.80;64.80;;;;;;5017525;28;19917;-67
2021/08/11 11:28:09;;;;;;;;;;;21.80;64.80;;;;;;4996147;28;19921;-56
2021/08/11 11:30:34;;;;;;;;;;;21.80;64.70;;;;;;5024414;28;19924;-65
2021/08/11 11:33:18;;;;;;;;;;;21.80;64.70;;;;;;4993755;28;19913;-60
2021/08/11 11:35:44;;;;;;;;;;;21.80;64.70;;;;;;5034050;28;19913;-66
2021/08/11 11:38:10;;;;;;;;;;;21.80;64.50;;;;;;5010984;28;19917;-67
2021/08/11 11:40:53;;;;;;;;;;;21.80;64.40;;;;;;5024070;28;19968;-60
2021/08/11 11:43:22;;;;;;;;;;;21.80;64.20;;;;;;4994651;28;19920;-58
2021/08/11 11:45:48;;;;;;;;;;;21.80;64.30;;;;;;5014443;28;19914;-59
2021/08/11 11:48:14;;;;;;;;;;;21.80;64.30;;;;;;4990453;28;19921;-55
2021/08/11 11:50:43;;;;;;;;;;;21.80;63.90;;;;;;5018718;28;19929;-57
2021/08/11 11:53:10;;;;;;;;;;;21.80;64.10;;;;;;5008017;28;19921;-58
2021/08/11 11:55:37;;;;;;;;;;;21.80;64.30;;;;;;5020193;28;19917;-59
2021/08/11 11:58:06;;;;;;;;;;;21.80;64.30;;;;;;4998965;28;20028;-62
2021/08/11 12:00:31;;;;;;;;;;;21.80;63.50;;;;;;5015444;28;19918;-60
2021/08/11 12:02:57;;;;;;;;;;;21.80;63.30;;;;;;4993040;28;19921;-59
2021/08/11 12:05:22;;;;;;;;;;;21.80;62.90;;;;;;5030421;28;19918;-65
2021/08/11 12:07:48;;;;;;;;;;;21.80;63.50;;;;;;5023436;28;19921;-63
2021/08/11 12:10:26;;;;;;;;;;;21.80;63.00;;;;;;5019067;28;19912;-65
2021/08/11 12:12:58;;;;;;;;;;;21.80;63.60;;;;;;5018908;28;19928;-61
2021/08/11 12:15:24;;;;;;;;;;;21.80;63.50;;;;;;5000534;28;19956;-66
2021/08/11 12:17:49;;;;;;;;;;;21.80;63.20;;;;;;5024539;28;19979;-64
2021/08/11 12:20:27;;;;;;;;;;;21.80;63.50;;;;;;5011203;28;19925;-66
2021/08/11 12:22:52;;;;;;;;;;;21.80;63.70;;;;;;5008350;28;20388;-67
2021/08/11 12:25:21;;;;;;;;;;;21.80;63.80;;;;;;5023553;28;19920;-67
2021/08/11 12:28:05;;;;;;;;;;;21.80;63.90;;;;;;5018882;28;19921;-66
2021/08/11 12:30:31;;;;;;;;;;;21.80;62.40;;;;;;5023178;28;19914;-66
2021/08/11 12:32:56;;;;;;;;;;;21.80;63.20;;;;;;5016225;28;19913;-64
2021/08/11 12:35:22;;;;;;;;;;;21.90;62.60;;;;;;5006733;28;19956;-61
2021/08/11 12:37:47;;;;;;;;;;;21.90;62.50;;;;;;5006230;28;19979;-67
2021/08/11 12:40:29;;;;;;;;;;;21.80;62.10;;;;;;5006674;28;20351;-67
2021/08/11 12:42:54;;;;;;;;;;;21.80;63.00;;;;;;5011232;28;19921;-67
2021/08/11 12:45:20;;;;;;;;;;;21.80;63.00;;;;;;5014929;28;19926;-67
2021/08/11 12:47:45;;;;;;;;;;;21.80;63.00;;;;;;5015884;28;20450;-67
2021/08/11 12:50:17;;;;;;;;;;;21.80;63.40;;;;;;5014782;28;19919;-65
2021/08/11 12:52:53;;;;;;;;;;;21.80;63.50;;;;;;5013892;28;19920;-66
2021/08/11 12:55:29;;;;;;;;;;;21.80;63.90;;;;;;5015115;28;20383;-66
2021/08/11 12:57:54;;;;;;;;;;;21.80;63.90;;;;;;5045037;22;19921;-66
2021/08/11 13:00:36;;;;;;;;;;;21.80;64.10;;;;;;5026684;28;19929;-66
2021/08/11 13:03:02;;;;;;;;;;;21.80;63.90;;;;;;5029182;28;20000;-66
2021/08/11 13:05:27;;;;;;;;;;;21.80;62.80;;;;;;5023195;28;20331;-67
2021/08/11 13:07:53;;;;;;;;;;;21.90;60.40;;;;;;5035353;28;19966;-66
2021/08/11 13:10:19;;;;;;;;;;;21.90;62.30;;;;;;5029016;28;19936;-66
2021/08/11 13:12:45;;;;;;;;;;;21.80;62.80;;;;;;5021431;28;20372;-65
2021/08/11 13:15:19;;;;;;;;;;;21.80;62.80;;;;;;5027957;28;19917;-66
2021/08/11 13:17:47;;;;;;;;;;;21.80;63.10;;;;;;5029950;28;19978;-66
2021/08/11 13:20:19;;;;;;;;;;;21.80;62.80;;;;;;5032089;28;20338;-66
2021/08/11 13:22:46;;;;;;;;;;;21.80;63.10;;;;;;5025547;28;19920;-65
2021/08/11 13:25:12;;;;;;;;;;;21.80;63.40;;;;;;5033603;28;19920;-66
2021/08/11 13:27:38;;;;;;;;;;;21.90;63.20;;;;;;5042789;28;19917;-66
2021/08/11 13:30:03;;;;;;;;;;;21.90;62.30;;;;;;5036617;28;19964;-65
2021/08/11 13:32:30;;;;;;;;;;;21.90;62.40;;;;;;5022656;28;20413;-65
2021/08/11 13:34:56;;;;;;;;;;;21.90;62.80;;;;;;5034638;28;20008;-66
2021/08/11 13:37:21;;;;;;;;;;;21.90;62.80;;;;;;5033876;28;19921;-66
2021/08/11 13:39:47;;;;;;;;;;;21.90;62.80;;;;;;5039776;28;20376;-66
2021/08/11 13:42:12;;;;;;;;;;;21.80;63.30;;;;;;5042321;28;19978;-66
2021/08/11 13:44:38;;;;;;;;;;;21.80;62.90;;;;;;5032615;28;19917;-65
2021/08/11 13:47:03;;;;;;;;;;;21.80;62.80;;;;;;5022556;28;19945;-66
2021/08/11 13:49:29;;;;;;;;;;;21.90;62.80;;;;;;5031373;28;20602;-66
2021/08/11 13:51:54;;;;;;;;;;;21.80;63.20;;;;;;5028653;28;19924;-66
2021/08/11 13:54:23;;;;;;;;;;;21.80;63.20;;;;;;5042085;28;20375;-66
2021/08/11 13:56:51;;;;;;;;;;;21.90;63.40;;;;;;5028832;28;19943;-66
2021/08/11 13:59:17;;;;;;;;;;;21.90;63.60;;;;;;5028217;28;19978;-66
2021/08/11 14:01:42;;;;;;;;;;;21.90;62.90;;;;;;5040603;28;19913;-66
2021/08/11 14:04:08;;;;;;;;;;;21.90;62.70;;;;;;5026061;28;19943;-66
2021/08/11 14:06:33;;;;;;;;;;;21.90;62.80;;;;;;5033263;28;20346;-66
2021/08/11 14:08:59;;;;;;;;;;;21.80;62.80;;;;;;5038777;28;20012;-66
2021/08/11 14:11:24;;;;;;;;;;;21.80;63.00;;;;;;5022266;28;19921;-66
2021/08/11 14:13:50;;;;;;;;;;;21.80;62.70;;;;;;5032541;28;20392;-66